Humidity-temperature Sensor

Selected Measurement Type: Air Temperature

 
Air Temperature [°C]     6 entries per hour
Showing data from 9/13/2017 (00:00:00 Z) to 9/10/2017 (00:01:00 Z)
Previous Next [ Day | 3-Days | 7-Days ]
First Last
Prev [ Day | 3-Days | 7-Days ] Next
First Last

Start Time:     :
End Time:     :     
Time (in GMT) :00 :50 :40 :30 :20 :10
Previous Next [ Day | 3-Days | 7-Days ]
First Last
Prev [ Day | 3-Days | 7-Days ] Next
First Last


123 => good data
MM => data is determined as missing
-- => data not received/configured
Back to Top Back to Top
9/13/2017 00:00 to 23:10 27.59 27.52 27.51 28.39 28.86 28.71
9/12/2017 23:00 to 22:10 28.83 28.70 28.61 28.55 28.71 28.52
9/12/2017 22:00 to 21:10 28.72 28.81 29.02 28.88 28.89 28.74
9/12/2017 21:00 to 20:10 28.77 28.91 28.79 28.82 28.76 28.87
9/12/2017 20:00 to 19:10 28.96 28.59 28.60 28.62 28.68 27.96
9/12/2017 19:00 to 18:10 28.37 28.61 28.54 28.65 28.49 28.55
9/12/2017 18:00 to 17:10 28.64 28.57 28.52 28.38 28.32 28.25
9/12/2017 17:00 to 16:10 28.33 28.29 28.33 28.22 28.13 28.17
9/12/2017 16:00 to 15:10 28.31 28.26 28.13 28.23 28.18 28.17
9/12/2017 15:00 to 14:10 28.05 28.15 28.19 28.14 28.04 27.96
9/12/2017 14:00 to 13:10 27.60 27.40 27.40 27.54 28.21 28.14
9/12/2017 13:00 to 12:10 28.19 28.14 28.13 28.10 28.00 27.82
9/12/2017 12:00 to 11:10 27.71 27.78 28.13 28.09 28.11 28.07
9/12/2017 11:00 to 10:10 28.05 28.08 27.91 28.02 27.83 27.67
9/12/2017 10:00 to 9:10 28.02 28.06 27.92 27.78 27.41 27.43
9/12/2017 09:00 to 8:10 28.29 28.54 28.61 28.59 28.50 28.44
9/12/2017 08:00 to 7:10 28.44 28.47 28.60 28.64 28.54 28.48
9/12/2017 07:00 to 6:10 28.60 28.53 28.47 28.46 28.47 28.35
9/12/2017 06:00 to 5:10 28.31 28.31 28.37 28.27 28.00 27.54
9/12/2017 05:00 to 4:10 27.39 27.26 27.16 26.97 27.11 27.20
9/12/2017 04:00 to 3:10 27.21 28.22 28.13 28.64 28.70 28.94
9/12/2017 03:00 to 2:10 28.92 28.80 28.51 28.59 28.42 28.21
9/12/2017 02:00 to 1:10 28.07 28.27 28.34 28.68 28.79 27.97
9/12/2017 01:00 to 0:10 27.39 26.67 27.57 28.34 28.50 28.39
9/12/2017 00:00 to 23:10 28.32 28.88 28.63 28.51 28.98 28.99
9/11/2017 23:00 to 22:10 29.05 28.97 28.82 28.90 29.02 28.97
9/11/2017 22:00 to 21:10 29.08 28.96 29.09 29.05 29.02 29.18
9/11/2017 21:00 to 20:10 29.02 29.00 28.96 28.98 28.89 28.90
9/11/2017 20:00 to 19:10 28.86 28.86 28.84 28.80 28.95 28.85
9/11/2017 19:00 to 18:10 28.90 29.00 29.15 29.00 28.96 28.42
9/11/2017 18:00 to 17:10 28.45 28.32 28.29 28.01 27.94 28.05
9/11/2017 17:00 to 16:10 28.03 27.99 27.92 27.92 27.90 27.73
9/11/2017 16:00 to 15:10 27.75 27.65 27.69 27.83 27.66 27.89
9/11/2017 15:00 to 14:10 28.03 28.09 28.02 28.05 28.26 28.25
9/11/2017 14:00 to 13:10 28.18 28.12 27.84 27.63 27.47 27.26
9/11/2017 13:00 to 12:10 27.58 28.71 28.62 28.78 28.68 28.66
9/11/2017 12:00 to 11:10 28.68 28.67 28.66 28.73 28.71 28.73
9/11/2017 11:00 to 10:10 28.67 28.39 28.28 27.86 27.81 27.71
9/11/2017 10:00 to 9:10 27.60 27.23 26.81 26.66 26.73 27.55
9/11/2017 09:00 to 8:10 28.33 28.39 28.24 28.12 28.07 28.13
9/11/2017 08:00 to 7:10 28.14 28.09 28.00 27.91 28.01 27.87
9/11/2017 07:00 to 6:10 27.98 27.82 27.70 27.79 27.63 27.65
9/11/2017 06:00 to 5:10 -- -- -- -- -- --
9/11/2017 05:00 to 4:10 26.10 25.60 25.63 27.02 27.85 27.95
9/11/2017 04:00 to 3:10 28.12 28.24 28.13 28.01 27.87 27.80
9/11/2017 03:00 to 2:10 27.64 27.44 27.23 27.05 26.87 26.95
9/11/2017 02:00 to 1:10 27.11 27.50 27.34 27.38 27.22 26.97
9/11/2017 01:00 to 0:10 27.10 27.12 29.54 29.43 29.30 28.87
9/11/2017 00:00 to 23:10 28.75 28.67 28.59 28.50 28.26 28.09
9/10/2017 23:00 to 22:10 28.25 28.20 27.90 28.02 29.45 29.37
9/10/2017 22:00 to 21:10 29.30 29.21 29.31 29.51 29.47 29.51
9/10/2017 21:00 to 20:10 29.62 29.56 29.50 29.64 29.52 29.47
9/10/2017 20:00 to 19:10 29.26 28.99 28.77 28.64 28.62 28.58
9/10/2017 19:00 to 18:10 28.29 28.12 27.85 27.71 27.58 27.64
9/10/2017 18:00 to 17:10 27.57 27.54 27.32 27.02 26.43 26.11
9/10/2017 17:00 to 16:10 25.92 26.14 26.10 26.43 26.70 26.51
9/10/2017 16:00 to 15:10 26.39 26.79 27.22 27.84 27.84 27.74
9/10/2017 15:00 to 14:10 27.89 27.95 27.76 27.55 27.44 27.29
9/10/2017 14:00 to 13:10 27.10 26.99 26.82 26.56 26.26 25.65
9/10/2017 13:00 to 12:10 25.93 26.06 26.90 27.12 26.91 26.58
9/10/2017 12:00 to 11:10 26.16 25.88 25.72 25.10 25.00 25.69
9/10/2017 11:00 to 10:10 26.03 26.08 25.84 26.47 26.73 26.34
9/10/2017 10:00 to 9:10 26.32 27.91 27.60 27.60 27.33 27.27
9/10/2017 09:00 to 8:10 27.07 26.94 26.96 27.19 27.44 27.82
9/10/2017 08:00 to 7:10 27.86 27.72 27.83 27.91 27.75 27.76
9/10/2017 07:00 to 6:10 27.66 27.68 27.56 27.08 27.46 27.37
9/10/2017 06:00 to 5:10 27.41 27.44 27.46 27.44 27.41 27.20
9/10/2017 05:00 to 4:10 26.97 26.92 26.82 26.83 26.70 26.56
9/10/2017 04:00 to 3:10 26.26 26.04 25.55 25.57 25.89 26.02
9/10/2017 03:00 to 2:10 -- -- -- -- -- --
9/10/2017 02:00 to 1:10 26.32 26.44 26.37 26.48 26.37 26.17
9/10/2017 01:00 to 0:10 26.22 26.24 25.97 25.94 26.14 25.75